sensor_id;sensor_type;location;lat;lon;timestamp;temperature;humidity
17815;DHT22;9031;50.974;11.330;2023-02-01T00:02:06;5.60;99.90
17815;DHT22;9031;50.974;11.330;2023-02-01T00:04:32;5.60;99.90
17815;DHT22;9031;50.974;11.330;2023-02-01T00:06:57;5.60;99.90
17815;DHT22;9031;50.974;11.330;2023-02-01T00:09:23;5.60;99.90
17815;DHT22;9031;50.974;11.330;2023-02-01T00:11:49;5.60;99.90
17815;DHT22;9031;50.974;11.330;2023-02-01T00:14:14;5.60;99.90
17815;DHT22;9031;50.974;11.330;2023-02-01T00:16:40;5.60;99.90
17815;DHT22;9031;50.974;11.330;2023-02-01T00:19:09;5.50;99.90
17815;DHT22;9031;50.974;11.330;2023-02-01T00:21:35;5.60;99.90
17815;DHT22;9031;50.974;11.330;2023-02-01T00:24:00;5.50;99.90
17815;DHT22;9031;50.974;11.330;2023-02-01T00:26:40;5.50;99.90
17815;DHT22;9031;50.974;11.330;2023-02-01T00:29:10;5.50;99.90
17815;DHT22;9031;50.974;11.330;2023-02-01T00:31:36;5.60;99.90
17815;DHT22;9031;50.974;11.330;2023-02-01T00:34:02;5.50;99.90
17815;DHT22;9031;50.974;11.330;2023-02-01T00:36:27;5.40;99.90
17815;DHT22;9031;50.974;11.330;2023-02-01T00:38:54;5.50;99.90
17815;DHT22;9031;50.974;11.330;2023-02-01T00:41:21;5.40;99.90
17815;DHT22;9031;50.974;11.330;2023-02-01T00:43:47;5.30;99.90
17815;DHT22;9031;50.974;11.330;2023-02-01T00:46:14;5.30;99.90
17815;DHT22;9031;50.974;11.330;2023-02-01T00:48:41;5.30;99.90
17815;DHT22;9031;50.974;11.330;2023-02-01T00:51:08;5.30;99.90
17815;DHT22;9031;50.974;11.330;2023-02-01T00:53:35;5.30;99.90
17815;DHT22;9031;50.974;11.330;2023-02-01T00:56:00;5.30;99.90
17815;DHT22;9031;50.974;11.330;2023-02-01T00:58:26;5.20;99.90
17815;DHT22;9031;50.974;11.330;2023-02-01T01:03:28;5.30;99.90
17815;DHT22;9031;50.974;11.330;2023-02-01T01:05:58;5.30;99.90
17815;DHT22;9031;50.974;11.330;2023-02-01T01:08:24;5.20;99.90
17815;DHT22;9031;50.974;11.330;2023-02-01T01:10:49;5.30;99.90
17815;DHT22;9031;50.974;11.330;2023-02-01T01:13:15;5.30;99.90
17815;DHT22;9031;50.974;11.330;2023-02-01T01:15:41;5.40;99.90
17815;DHT22;9031;50.974;11.330;2023-02-01T01:18:07;5.40;99.90
17815;DHT22;9031;50.974;11.330;2023-02-01T01:20:38;5.40;99.90
17815;DHT22;9031;50.974;11.330;2023-02-01T01:23:04;5.40;99.90
17815;DHT22;9031;50.974;11.330;2023-02-01T01:25:30;5.40;99.90
17815;DHT22;9031;50.974;11.330;2023-02-01T01:27:56;5.40;99.90
17815;DHT22;9031;50.974;11.330;2023-02-01T01:30:21;5.50;99.90
17815;DHT22;9031;50.974;11.330;2023-02-01T01:32:47;5.40;99.90
17815;DHT22;9031;50.974;11.330;2023-02-01T01:35:13;5.50;99.90
17815;DHT22;9031;50.974;11.330;2023-02-01T01:37:38;5.60;99.90
17815;DHT22;9031;50.974;11.330;2023-02-01T01:40:05;5.50;99.90
17815;DHT22;9031;50.974;11.330;2023-02-01T01:42:37;5.60;99.90
17815;DHT22;9031;50.974;11.330;2023-02-01T01:45:18;5.60;99.90
17815;DHT22;9031;50.974;11.330;2023-02-01T01:47:48;5.60;99.90
17815;DHT22;9031;50.974;11.330;2023-02-01T01:50:19;5.60;99.90
17815;DHT22;9031;50.974;11.330;2023-02-01T01:52:49;5.60;99.90
17815;DHT22;9031;50.974;11.330;2023-02-01T01:55:17;5.60;99.90
17815;DHT22;9031;50.974;11.330;2023-02-01T01:57:48;5.60;99.90
17815;DHT22;9031;50.974;11.330;2023-02-01T02:00:17;5.60;99.90
17815;DHT22;9031;50.974;11.330;2023-02-01T02:02:46;5.60;99.90
17815;DHT22;9031;50.974;11.330;2023-02-01T02:05:12;5.70;99.90
17815;DHT22;9031;50.974;11.330;2023-02-01T02:07:45;5.70;99.90
17815;DHT22;9031;50.974;11.330;2023-02-01T02:10:12;5.70;99.90
17815;DHT22;9031;50.974;11.330;2023-02-01T02:12:39;5.70;99.90
17815;DHT22;9031;50.974;11.330;2023-02-01T02:15:10;5.60;99.90
17815;DHT22;9031;50.974;11.330;2023-02-01T02:26:09;5.50;99.90
17815;DHT22;9031;50.974;11.330;2023-02-01T02:28:56;5.50;99.90
17815;DHT22;9031;50.974;11.330;2023-02-01T02:34:22;5.40;99.90
17815;DHT22;9031;50.974;11.330;2023-02-01T02:39:32;5.40;99.90
17815;DHT22;9031;50.974;11.330;2023-02-01T02:42:17;5.40;99.90
17815;DHT22;9031;50.974;11.330;2023-02-01T02:45:22;5.40;99.90
17815;DHT22;9031;50.974;11.330;2023-02-01T02:48:20;5.40;99.90
17815;DHT22;9031;50.974;11.330;2023-02-01T02:50:58;5.40;99.90
17815;DHT22;9031;50.974;11.330;2023-02-01T02:53:52;5.30;99.90
17815;DHT22;9031;50.974;11.330;2023-02-01T02:56:38;5.30;99.90
17815;DHT22;9031;50.974;11.330;2023-02-01T02:59:25;5.30;99.90
17815;DHT22;9031;50.974;11.330;2023-02-01T03:02:11;5.30;99.90
17815;DHT22;9031;50.974;11.330;2023-02-01T03:04:55;5.20;99.90
17815;DHT22;9031;50.974;11.330;2023-02-01T03:10:17;5.20;99.90
17815;DHT22;9031;50.974;11.330;2023-02-01T03:12:48;5.20;99.90
17815;DHT22;9031;50.974;11.330;2023-02-01T03:15:37;5.20;99.90
17815;DHT22;9031;50.974;11.330;2023-02-01T03:18:12;5.20;99.90
17815;DHT22;9031;50.974;11.330;2023-02-01T03:20:40;5.10;99.90
17815;DHT22;9031;50.974;11.330;2023-02-01T03:23:07;5.10;99.90
17815;DHT22;9031;50.974;11.330;2023-02-01T03:25:34;5.10;99.90
17815;DHT22;9031;50.974;11.330;2023-02-01T03:28:03;5.10;99.90
17815;DHT22;9031;50.974;11.330;2023-02-01T03:30:57;5.10;99.90
17815;DHT22;9031;50.974;11.330;2023-02-01T03:33:26;5.10;99.90
17815;DHT22;9031;50.974;11.330;2023-02-01T03:36:11;5.20;99.90
17815;DHT22;9031;50.974;11.330;2023-02-01T03:38:54;5.20;99.90
17815;DHT22;9031;50.974;11.330;2023-02-01T03:41:42;5.20;99.90
17815;DHT22;9031;50.974;11.330;2023-02-01T03:44:31;5.30;99.90
17815;DHT22;9031;50.974;11.330;2023-02-01T03:49:28;5.50;99.90
17815;DHT22;9031;50.974;11.330;2023-02-01T03:51:58;5.50;99.90
17815;DHT22;9031;50.974;11.330;2023-02-01T03:54:24;5.40;99.90
17815;DHT22;9031;50.974;11.330;2023-02-01T03:56:50;5.50;99.90
17815;DHT22;9031;50.974;11.330;2023-02-01T03:59:17;5.40;99.90
17815;DHT22;9031;50.974;11.330;2023-02-01T04:01:42;5.30;99.90
17815;DHT22;9031;50.974;11.330;2023-02-01T04:04:08;5.40;99.90
17815;DHT22;9031;50.974;11.330;2023-02-01T04:06:34;5.40;99.90
17815;DHT22;9031;50.974;11.330;2023-02-01T04:09:00;5.40;99.90
17815;DHT22;9031;50.974;11.330;2023-02-01T04:11:25;5.40;99.90
17815;DHT22;9031;50.974;11.330;2023-02-01T04:13:53;5.40;99.90
17815;DHT22;9031;50.974;11.330;2023-02-01T04:16:18;5.40;99.90
17815;DHT22;9031;50.974;11.330;2023-02-01T04:18:44;5.30;99.90
17815;DHT22;9031;50.974;11.330;2023-02-01T04:21:09;5.30;99.90
17815;DHT22;9031;50.974;11.330;2023-02-01T04:23:34;5.30;99.90
17815;DHT22;9031;50.974;11.330;2023-02-01T04:26:03;5.20;99.90
17815;DHT22;9031;50.974;11.330;2023-02-01T04:28:28;5.20;99.90
17815;DHT22;9031;50.974;11.330;2023-02-01T04:30:54;5.10;99.90
17815;DHT22;9031;50.974;11.330;2023-02-01T04:33:19;5.00;99.90
17815;DHT22;9031;50.974;11.330;2023-02-01T04:35:45;5.00;99.90
17815;DHT22;9031;50.974;11.330;2023-02-01T04:38:11;5.00;99.90
17815;DHT22;9031;50.974;11.330;2023-02-01T04:40:36;5.00;99.90
17815;DHT22;9031;50.974;11.330;2023-02-01T04:43:03;5.00;99.90
17815;DHT22;9031;50.974;11.330;2023-02-01T04:45:28;5.00;99.90
17815;DHT22;9031;50.974;11.330;2023-02-01T04:47:54;5.00;99.90
17815;DHT22;9031;50.974;11.330;2023-02-01T04:50:19;5.00;99.90
17815;DHT22;9031;50.974;11.330;2023-02-01T04:52:45;5.00;99.90
17815;DHT22;9031;50.974;11.330;2023-02-01T04:55:12;5.00;99.90
17815;DHT22;9031;50.974;11.330;2023-02-01T04:57:39;4.90;99.90
17815;DHT22;9031;50.974;11.330;2023-02-01T05:00:06;4.90;99.90
17815;DHT22;9031;50.974;11.330;2023-02-01T05:02:32;4.90;99.90
17815;DHT22;9031;50.974;11.330;2023-02-01T05:04:58;4.90;99.90
17815;DHT22;9031;50.974;11.330;2023-02-01T05:07:23;4.90;99.90
17815;DHT22;9031;50.974;11.330;2023-02-01T05:09:49;4.90;99.90
17815;DHT22;9031;50.974;11.330;2023-02-01T05:12:14;5.00;99.90
17815;DHT22;9031;50.974;11.330;2023-02-01T05:14:58;5.00;99.90
17815;DHT22;9031;50.974;11.330;2023-02-01T05:17:24;5.00;99.90
17815;DHT22;9031;50.974;11.330;2023-02-01T05:19:49;5.10;99.90
17815;DHT22;9031;50.974;11.330;2023-02-01T05:22:15;5.10;99.90
17815;DHT22;9031;50.974;11.330;2023-02-01T05:24:40;5.20;99.90
17815;DHT22;9031;50.974;11.330;2023-02-01T05:27:06;5.20;99.90
17815;DHT22;9031;50.974;11.330;2023-02-01T05:29:31;5.30;99.90
17815;DHT22;9031;50.974;11.330;2023-02-01T05:31:57;5.30;99.90
17815;DHT22;9031;50.974;11.330;2023-02-01T05:34:22;5.40;99.90
17815;DHT22;9031;50.974;11.330;2023-02-01T05:36:48;5.30;99.90
17815;DHT22;9031;50.974;11.330;2023-02-01T05:39:13;5.40;99.90
17815;DHT22;9031;50.974;11.330;2023-02-01T05:41:39;5.40;99.90
17815;DHT22;9031;50.974;11.330;2023-02-01T05:44:04;5.40;99.90
17815;DHT22;9031;50.974;11.330;2023-02-01T05:46:33;5.50;99.90
17815;DHT22;9031;50.974;11.330;2023-02-01T05:48:58;5.50;99.90
17815;DHT22;9031;50.974;11.330;2023-02-01T05:51:24;5.50;99.90
17815;DHT22;9031;50.974;11.330;2023-02-01T05:53:49;5.50;99.90
17815;DHT22;9031;50.974;11.330;2023-02-01T05:56:15;5.50;99.90
17815;DHT22;9031;50.974;11.330;2023-02-01T05:58:40;5.40;99.90
17815;DHT22;9031;50.974;11.330;2023-02-01T06:01:05;5.40;99.90
17815;DHT22;9031;50.974;11.330;2023-02-01T06:03:31;5.30;99.90
17815;DHT22;9031;50.974;11.330;2023-02-01T06:05:57;5.30;99.90
17815;DHT22;9031;50.974;11.330;2023-02-01T06:08:22;5.30;99.90
17815;DHT22;9031;50.974;11.330;2023-02-01T06:10:51;5.30;99.90
17815;DHT22;9031;50.974;11.330;2023-02-01T06:13:22;5.40;99.90
17815;DHT22;9031;50.974;11.330;2023-02-01T06:15:47;5.40;99.90
17815;DHT22;9031;50.974;11.330;2023-02-01T06:18:13;5.50;99.90
17815;DHT22;9031;50.974;11.330;2023-02-01T06:20:41;5.60;99.90
17815;DHT22;9031;50.974;11.330;2023-02-01T06:23:06;5.50;99.90
17815;DHT22;9031;50.974;11.330;2023-02-01T06:25:32;5.50;99.90
17815;DHT22;9031;50.974;11.330;2023-02-01T06:28:00;5.60;99.90
17815;DHT22;9031;50.974;11.330;2023-02-01T06:30:26;5.60;99.90
17815;DHT22;9031;50.974;11.330;2023-02-01T06:32:52;5.60;99.90
17815;DHT22;9031;50.974;11.330;2023-02-01T06:35:20;5.60;99.90
17815;DHT22;9031;50.974;11.330;2023-02-01T06:37:46;5.60;99.90
17815;DHT22;9031;50.974;11.330;2023-02-01T06:40:11;5.60;99.90
17815;DHT22;9031;50.974;11.330;2023-02-01T06:42:37;5.60;99.90
17815;DHT22;9031;50.974;11.330;2023-02-01T06:45:03;5.60;99.90
17815;DHT22;9031;50.974;11.330;2023-02-01T06:47:28;5.60;99.90
17815;DHT22;9031;50.974;11.330;2023-02-01T06:49:54;5.60;99.90
17815;DHT22;9031;50.974;11.330;2023-02-01T06:52:20;5.60;99.90
17815;DHT22;9031;50.974;11.330;2023-02-01T06:54:45;5.60;99.90
17815;DHT22;9031;50.974;11.330;2023-02-01T06:57:11;5.50;99.90
17815;DHT22;9031;50.974;11.330;2023-02-01T06:59:37;5.50;99.90
17815;DHT22;9031;50.974;11.330;2023-02-01T07:02:02;5.50;99.90
17815;DHT22;9031;50.974;11.330;2023-02-01T07:04:28;5.40;99.90
17815;DHT22;9031;50.974;11.330;2023-02-01T07:06:53;5.40;99.90
17815;DHT22;9031;50.974;11.330;2023-02-01T07:09:19;5.50;99.90
17815;DHT22;9031;50.974;11.330;2023-02-01T07:11:45;5.50;99.90
17815;DHT22;9031;50.974;11.330;2023-02-01T07:14:11;5.50;99.90
17815;DHT22;9031;50.974;11.330;2023-02-01T07:16:36;5.50;99.90
17815;DHT22;9031;50.974;11.330;2023-02-01T07:19:02;5.60;99.90
17815;DHT22;9031;50.974;11.330;2023-02-01T07:21:28;5.60;99.90
17815;DHT22;9031;50.974;11.330;2023-02-01T07:23:54;5.70;99.90
17815;DHT22;9031;50.974;11.330;2023-02-01T07:26:19;5.70;99.90
17815;DHT22;9031;50.974;11.330;2023-02-01T07:28:45;5.70;99.90
17815;DHT22;9031;50.974;11.330;2023-02-01T07:31:14;5.80;99.90
17815;DHT22;9031;50.974;11.330;2023-02-01T07:33:41;5.70;99.90
17815;DHT22;9031;50.974;11.330;2023-02-01T07:36:08;5.70;99.90
17815;DHT22;9031;50.974;11.330;2023-02-01T07:38:35;5.70;99.90
17815;DHT22;9031;50.974;11.330;2023-02-01T07:41:03;5.80;99.90
17815;DHT22;9031;50.974;11.330;2023-02-01T07:43:29;5.80;99.90
17815;DHT22;9031;50.974;11.330;2023-02-01T07:45:55;5.80;99.90
17815;DHT22;9031;50.974;11.330;2023-02-01T07:48:22;5.80;99.90
17815;DHT22;9031;50.974;11.330;2023-02-01T07:50:48;5.80;99.90
17815;DHT22;9031;50.974;11.330;2023-02-01T07:53:14;5.70;99.90
17815;DHT22;9031;50.974;11.330;2023-02-01T07:55:40;5.70;99.90
17815;DHT22;9031;50.974;11.330;2023-02-01T07:58:06;5.70;99.90
17815;DHT22;9031;50.974;11.330;2023-02-01T08:00:31;5.70;99.90
17815;DHT22;9031;50.974;11.330;2023-02-01T08:03:15;5.70;99.90
17815;DHT22;9031;50.974;11.330;2023-02-01T08:05:41;5.70;99.90
17815;DHT22;9031;50.974;11.330;2023-02-01T08:08:07;5.70;99.90
17815;DHT22;9031;50.974;11.330;2023-02-01T08:10:33;5.70;99.90
17815;DHT22;9031;50.974;11.330;2023-02-01T08:13:00;5.80;99.90
17815;DHT22;9031;50.974;11.330;2023-02-01T08:15:27;5.90;99.90
17815;DHT22;9031;50.974;11.330;2023-02-01T08:17:53;6.00;99.90
17815;DHT22;9031;50.974;11.330;2023-02-01T08:20:20;5.90;99.90
17815;DHT22;9031;50.974;11.330;2023-02-01T08:22:49;5.90;99.90
17815;DHT22;9031;50.974;11.330;2023-02-01T08:25:15;5.90;99.90
17815;DHT22;9031;50.974;11.330;2023-02-01T08:27:41;5.90;99.90
17815;DHT22;9031;50.974;11.330;2023-02-01T08:30:07;5.90;99.90
17815;DHT22;9031;50.974;11.330;2023-02-01T08:32:33;5.80;99.90
17815;DHT22;9031;50.974;11.330;2023-02-01T08:34:59;5.70;99.90
17815;DHT22;9031;50.974;11.330;2023-02-01T08:37:24;5.70;99.90
17815;DHT22;9031;50.974;11.330;2023-02-01T08:39:50;5.60;99.90
17815;DHT22;9031;50.974;11.330;2023-02-01T08:42:16;5.50;99.90
17815;DHT22;9031;50.974;11.330;2023-02-01T08:45:01;5.50;99.90
17815;DHT22;9031;50.974;11.330;2023-02-01T08:47:27;5.50;99.90
17815;DHT22;9031;50.974;11.330;2023-02-01T08:49:53;5.40;99.90
17815;DHT22;9031;50.974;11.330;2023-02-01T08:52:19;5.40;99.90
17815;DHT22;9031;50.974;11.330;2023-02-01T08:54:44;5.50;99.90
17815;DHT22;9031;50.974;11.330;2023-02-01T08:57:10;5.60;99.90
17815;DHT22;9031;50.974;11.330;2023-02-01T08:59:35;5.70;99.90
17815;DHT22;9031;50.974;11.330;2023-02-01T09:02:01;5.70;99.90
17815;DHT22;9031;50.974;11.330;2023-02-01T09:04:26;5.70;99.90
17815;DHT22;9031;50.974;11.330;2023-02-01T09:06:52;5.70;99.90
17815;DHT22;9031;50.974;11.330;2023-02-01T09:09:21;5.60;99.90
17815;DHT22;9031;50.974;11.330;2023-02-01T09:11:46;5.70;99.90
17815;DHT22;9031;50.974;11.330;2023-02-01T09:14:12;5.90;99.90
17815;DHT22;9031;50.974;11.330;2023-02-01T09:16:37;5.90;99.90
17815;DHT22;9031;50.974;11.330;2023-02-01T09:19:03;6.00;99.90
17815;DHT22;9031;50.974;11.330;2023-02-01T09:21:29;6.30;99.90
17815;DHT22;9031;50.974;11.330;2023-02-01T09:23:54;6.30;99.90
17815;DHT22;9031;50.974;11.330;2023-02-01T09:26:20;6.30;99.90
17815;DHT22;9031;50.974;11.330;2023-02-01T09:28:45;6.30;99.90
17815;DHT22;9031;50.974;11.330;2023-02-01T09:31:11;6.50;99.90
17815;DHT22;9031;50.974;11.330;2023-02-01T09:33:36;6.80;99.90
17815;DHT22;9031;50.974;11.330;2023-02-01T09:36:04;6.90;99.90
17815;DHT22;9031;50.974;11.330;2023-02-01T09:38:30;6.70;99.90
17815;DHT22;9031;50.974;11.330;2023-02-01T09:40:56;6.70;99.90
17815;DHT22;9031;50.974;11.330;2023-02-01T09:43:42;6.90;99.90
17815;DHT22;9031;50.974;11.330;2023-02-01T09:46:38;6.80;99.90
17815;DHT22;9031;50.974;11.330;2023-02-01T09:49:10;7.10;99.90
17815;DHT22;9031;50.974;11.330;2023-02-01T09:51:39;7.10;99.90
17815;DHT22;9031;50.974;11.330;2023-02-01T09:54:14;7.30;99.90
17815;DHT22;9031;50.974;11.330;2023-02-01T10:02:02;7.10;99.90
17815;DHT22;9031;50.974;11.330;2023-02-01T10:04:29;6.70;99.90
17815;DHT22;9031;50.974;11.330;2023-02-01T10:09:42;7.30;99.90
17815;DHT22;9031;50.974;11.330;2023-02-01T10:15:19;8.10;99.90
17815;DHT22;9031;50.974;11.330;2023-02-01T10:18:03;8.30;99.90
17815;DHT22;9031;50.974;11.330;2023-02-01T10:23:52;8.60;99.90
17815;DHT22;9031;50.974;11.330;2023-02-01T10:26:32;9.10;99.90
17815;DHT22;9031;50.974;11.330;2023-02-01T10:29:01;9.00;99.90
17815;DHT22;9031;50.974;11.330;2023-02-01T10:31:29;8.20;99.90
17815;DHT22;9031;50.974;11.330;2023-02-01T10:33:57;7.90;99.90
17815;DHT22;9031;50.974;11.330;2023-02-01T10:36:32;7.70;99.90
17815;DHT22;9031;50.974;11.330;2023-02-01T10:39:02;7.70;99.90
17815;DHT22;9031;50.974;11.330;2023-02-01T10:41:34;7.70;99.90
17815;DHT22;9031;50.974;11.330;2023-02-01T10:44:03;7.60;99.90
17815;DHT22;9031;50.974;11.330;2023-02-01T10:46:30;7.40;99.90
17815;DHT22;9031;50.974;11.330;2023-02-01T10:48:57;7.50;99.90
17815;DHT22;9031;50.974;11.330;2023-02-01T10:51:31;7.70;99.90
17815;DHT22;9031;50.974;11.330;2023-02-01T10:54:08;7.70;99.90
17815;DHT22;9031;50.974;11.330;2023-02-01T10:56:38;7.70;99.90
17815;DHT22;9031;50.974;11.330;2023-02-01T10:59:06;7.70;99.90
17815;DHT22;9031;50.974;11.330;2023-02-01T11:01:39;7.90;99.90
17815;DHT22;9031;50.974;11.330;2023-02-01T11:04:13;8.10;99.90
17815;DHT22;9031;50.974;11.330;2023-02-01T11:06:44;8.20;99.90
17815;DHT22;9031;50.974;11.330;2023-02-01T11:09:20;8.60;99.90
17815;DHT22;9031;50.974;11.330;2023-02-01T11:14:20;8.30;99.90
17815;DHT22;9031;50.974;11.330;2023-02-01T11:16:59;8.10;99.90
17815;DHT22;9031;50.974;11.330;2023-02-01T11:19:28;7.90;99.90
17815;DHT22;9031;50.974;11.330;2023-02-01T11:21:57;7.60;99.90
17815;DHT22;9031;50.974;11.330;2023-02-01T11:24:32;7.40;99.90
17815;DHT22;9031;50.974;11.330;2023-02-01T11:27:01;7.40;99.90
17815;DHT22;9031;50.974;11.330;2023-02-01T11:29:39;7.40;99.90
17815;DHT22;9031;50.974;11.330;2023-02-01T11:32:05;7.40;99.90
17815;DHT22;9031;50.974;11.330;2023-02-01T11:37:02;7.50;99.90
17815;DHT22;9031;50.974;11.330;2023-02-01T11:39:33;7.50;99.90
17815;DHT22;9031;50.974;11.330;2023-02-01T11:42:13;7.40;99.90
17815;DHT22;9031;50.974;11.330;2023-02-01T11:44:41;7.30;99.90
17815;DHT22;9031;50.974;11.330;2023-02-01T11:47:23;7.30;99.90
17815;DHT22;9031;50.974;11.330;2023-02-01T11:50:00;7.30;99.90
17815;DHT22;9031;50.974;11.330;2023-02-01T11:55:38;7.30;99.90
17815;DHT22;9031;50.974;11.330;2023-02-01T12:06:46;7.30;99.90
17815;DHT22;9031;50.974;11.330;2023-02-01T12:20:07;7.40;99.90
17815;DHT22;9031;50.974;11.330;2023-02-01T12:34:35;7.40;99.90
17815;DHT22;9031;50.974;11.330;2023-02-01T12:42:38;7.40;99.90
17815;DHT22;9031;50.974;11.330;2023-02-01T12:45:30;7.20;99.90
17815;DHT22;9031;50.974;11.330;2023-02-01T12:48:02;7.10;99.90
17815;DHT22;9031;50.974;11.330;2023-02-01T12:50:47;7.00;99.90
17815;DHT22;9031;50.974;11.330;2023-02-01T12:53:19;7.00;99.90
17815;DHT22;9031;50.974;11.330;2023-02-01T12:55:50;7.00;99.90
17815;DHT22;9031;50.974;11.330;2023-02-01T12:58:35;6.90;99.90
17815;DHT22;9031;50.974;11.330;2023-02-01T13:01:12;6.90;99.90
17815;DHT22;9031;50.974;11.330;2023-02-01T13:03:54;6.90;99.90
17815;DHT22;9031;50.974;11.330;2023-02-01T13:12:13;7.00;99.90
17815;DHT22;9031;50.974;11.330;2023-02-01T13:14:49;7.00;99.90
17815;DHT22;9031;50.974;11.330;2023-02-01T13:17:27;6.80;99.90
17815;DHT22;9031;50.974;11.330;2023-02-01T13:20:00;6.80;99.90
17815;DHT22;9031;50.974;11.330;2023-02-01T13:22:47;6.90;99.90
17815;DHT22;9031;50.974;11.330;2023-02-01T13:27:56;7.00;99.90
17815;DHT22;9031;50.974;11.330;2023-02-01T13:30:30;7.00;99.90
17815;DHT22;9031;50.974;11.330;2023-02-01T13:33:23;6.90;99.90
17815;DHT22;9031;50.974;11.330;2023-02-01T13:36:05;6.90;99.90
17815;DHT22;9031;50.974;11.330;2023-02-01T13:38:44;6.80;99.90
17815;DHT22;9031;50.974;11.330;2023-02-01T13:41:35;6.90;99.90
17815;DHT22;9031;50.974;11.330;2023-02-01T13:44:14;6.90;99.90
17815;DHT22;9031;50.974;11.330;2023-02-01T13:46:46;6.90;99.90
17815;DHT22;9031;50.974;11.330;2023-02-01T13:49:24;7.00;99.90
17815;DHT22;9031;50.974;11.330;2023-02-01T13:51:53;7.20;99.90
17815;DHT22;9031;50.974;11.330;2023-02-01T13:54:38;7.40;99.90
17815;DHT22;9031;50.974;11.330;2023-02-01T13:57:06;7.50;99.90
17815;DHT22;9031;50.974;11.330;2023-02-01T14:05:10;7.80;99.90
17815;DHT22;9031;50.974;11.330;2023-02-01T14:07:36;7.70;99.90
17815;DHT22;9031;50.974;11.330;2023-02-01T14:13:12;7.40;99.90
17815;DHT22;9031;50.974;11.330;2023-02-01T14:15:38;7.30;99.90
17815;DHT22;9031;50.974;11.330;2023-02-01T14:21:31;7.50;99.90
17815;DHT22;9031;50.974;11.330;2023-02-01T14:24:02;7.60;99.90
17815;DHT22;9031;50.974;11.330;2023-02-01T14:34:34;7.30;99.90
17815;DHT22;9031;50.974;11.330;2023-02-01T14:37:06;7.20;99.90
17815;DHT22;9031;50.974;11.330;2023-02-01T14:39:34;7.20;99.90
17815;DHT22;9031;50.974;11.330;2023-02-01T14:42:14;7.40;99.90
17815;DHT22;9031;50.974;11.330;2023-02-01T14:44:41;7.40;99.90
17815;DHT22;9031;50.974;11.330;2023-02-01T14:47:10;7.40;99.90
17815;DHT22;9031;50.974;11.330;2023-02-01T14:52:18;7.30;99.90
17815;DHT22;9031;50.974;11.330;2023-02-01T14:54:52;7.20;99.90
17815;DHT22;9031;50.974;11.330;2023-02-01T14:57:19;7.10;99.90
17815;DHT22;9031;50.974;11.330;2023-02-01T14:59:46;7.00;99.90
17815;DHT22;9031;50.974;11.330;2023-02-01T15:02:23;7.00;99.90
17815;DHT22;9031;50.974;11.330;2023-02-01T15:04:57;7.00;99.90
17815;DHT22;9031;50.974;11.330;2023-02-01T15:07:24;7.00;99.90
17815;DHT22;9031;50.974;11.330;2023-02-01T15:09:53;6.90;99.90
17815;DHT22;9031;50.974;11.330;2023-02-01T15:12:27;6.80;99.90
17815;DHT22;9031;50.974;11.330;2023-02-01T15:15:15;6.80;99.90
17815;DHT22;9031;50.974;11.330;2023-02-01T15:17:55;6.80;99.90
17815;DHT22;9031;50.974;11.330;2023-02-01T15:20:26;6.80;99.90
17815;DHT22;9031;50.974;11.330;2023-02-01T15:22:58;6.70;99.90
17815;DHT22;9031;50.974;11.330;2023-02-01T15:25:30;6.80;99.90
17815;DHT22;9031;50.974;11.330;2023-02-01T15:27:56;6.80;99.90
17815;DHT22;9031;50.974;11.330;2023-02-01T15:30:29;6.70;99.90
17815;DHT22;9031;50.974;11.330;2023-02-01T15:33:18;6.50;99.90
17815;DHT22;9031;50.974;11.330;2023-02-01T15:46:06;6.20;99.90
17815;DHT22;9031;50.974;11.330;2023-02-01T15:48:38;6.20;99.90
17815;DHT22;9031;50.974;11.330;2023-02-01T15:51:04;6.30;99.90
17815;DHT22;9031;50.974;11.330;2023-02-01T15:53:31;6.20;99.90
17815;DHT22;9031;50.974;11.330;2023-02-01T15:56:02;6.30;99.90
17815;DHT22;9031;50.974;11.330;2023-02-01T15:58:29;6.40;99.90
17815;DHT22;9031;50.974;11.330;2023-02-01T16:00:59;6.40;99.90
17815;DHT22;9031;50.974;11.330;2023-02-01T16:03:40;6.40;99.90
17815;DHT22;9031;50.974;11.330;2023-02-01T16:06:30;6.40;99.90
17815;DHT22;9031;50.974;11.330;2023-02-01T16:09:03;6.40;99.90
17815;DHT22;9031;50.974;11.330;2023-02-01T16:11:41;6.50;99.90
17815;DHT22;9031;50.974;11.330;2023-02-01T16:14:07;6.50;99.90
17815;DHT22;9031;50.974;11.330;2023-02-01T16:16:33;6.60;99.90
17815;DHT22;9031;50.974;11.330;2023-02-01T16:18:58;6.60;99.90
17815;DHT22;9031;50.974;11.330;2023-02-01T16:21:24;6.60;99.90
17815;DHT22;9031;50.974;11.330;2023-02-01T16:23:50;6.60;99.90
17815;DHT22;9031;50.974;11.330;2023-02-01T16:26:17;6.60;99.90
17815;DHT22;9031;50.974;11.330;2023-02-01T16:28:42;6.50;99.90
17815;DHT22;9031;50.974;11.330;2023-02-01T16:31:12;6.50;99.90
17815;DHT22;9031;50.974;11.330;2023-02-01T16:33:53;6.60;99.90
17815;DHT22;9031;50.974;11.330;2023-02-01T16:36:19;6.60;99.90
17815;DHT22;9031;50.974;11.330;2023-02-01T16:38:45;6.60;99.90
17815;DHT22;9031;50.974;11.330;2023-02-01T16:41:14;6.60;99.90
17815;DHT22;9031;50.974;11.330;2023-02-01T16:43:40;6.60;99.90
17815;DHT22;9031;50.974;11.330;2023-02-01T16:46:13;6.40;99.90
17815;DHT22;9031;50.974;11.330;2023-02-01T16:48:41;6.20;99.90
17815;DHT22;9031;50.974;11.330;2023-02-01T16:51:13;6.00;99.90
17815;DHT22;9031;50.974;11.330;2023-02-01T16:53:40;5.70;99.90
17815;DHT22;9031;50.974;11.330;2023-02-01T16:56:17;4.20;99.90
17815;DHT22;9031;50.974;11.330;2023-02-01T16:58:43;2.80;99.90
17815;DHT22;9031;50.974;11.330;2023-02-01T17:01:14;2.20;99.90
17815;DHT22;9031;50.974;11.330;2023-02-01T17:03:40;2.10;99.90
17815;DHT22;9031;50.974;11.330;2023-02-01T17:06:08;2.00;99.90
17815;DHT22;9031;50.974;11.330;2023-02-01T17:08:37;1.90;99.90
17815;DHT22;9031;50.974;11.330;2023-02-01T17:11:04;2.00;99.90
17815;DHT22;9031;50.974;11.330;2023-02-01T17:13:31;2.00;99.90
17815;DHT22;9031;50.974;11.330;2023-02-01T17:18:47;1.90;99.90
17815;DHT22;9031;50.974;11.330;2023-02-01T17:21:14;1.90;99.90
17815;DHT22;9031;50.974;11.330;2023-02-01T17:23:40;1.90;99.90
17815;DHT22;9031;50.974;11.330;2023-02-01T17:26:09;1.90;99.90
17815;DHT22;9031;50.974;11.330;2023-02-01T17:28:35;2.00;99.90
17815;DHT22;9031;50.974;11.330;2023-02-01T17:31:00;1.90;99.90
17815;DHT22;9031;50.974;11.330;2023-02-01T17:33:30;2.10;99.90
17815;DHT22;9031;50.974;11.330;2023-02-01T17:35:56;2.10;99.90
17815;DHT22;9031;50.974;11.330;2023-02-01T17:38:23;2.20;99.90
17815;DHT22;9031;50.974;11.330;2023-02-01T17:40:49;2.20;99.90
17815;DHT22;9031;50.974;11.330;2023-02-01T17:43:23;2.30;99.90
17815;DHT22;9031;50.974;11.330;2023-02-01T17:45:57;2.20;99.90
17815;DHT22;9031;50.974;11.330;2023-02-01T17:48:24;2.20;99.90
17815;DHT22;9031;50.974;11.330;2023-02-01T17:50:50;2.20;99.90
17815;DHT22;9031;50.974;11.330;2023-02-01T17:53:19;2.20;99.90
17815;DHT22;9031;50.974;11.330;2023-02-01T17:55:49;2.30;99.90
17815;DHT22;9031;50.974;11.330;2023-02-01T17:58:15;2.30;99.90
17815;DHT22;9031;50.974;11.330;2023-02-01T18:00:42;2.30;99.90
17815;DHT22;9031;50.974;11.330;2023-02-01T18:03:27;2.40;99.90
17815;DHT22;9031;50.974;11.330;2023-02-01T18:05:54;2.40;99.90
17815;DHT22;9031;50.974;11.330;2023-02-01T18:08:24;2.60;99.90